sensor_id;sensor_type;location;lat;lon;timestamp;P1;durP1;ratioP1;P2;durP2;ratioP2
55465;SDS011;41329;41.594;23.810;2023-02-28T00:02:05;93.10;;;25.30;;
55465;SDS011;41329;41.594;23.810;2023-02-28T00:04:30;85.40;;;25.20;;
55465;SDS011;41329;41.594;23.810;2023-02-28T00:06:55;82.30;;;25.40;;
55465;SDS011;41329;41.594;23.810;2023-02-28T00:09:21;86.50;;;23.50;;
55465;SDS011;41329;41.594;23.810;2023-02-28T00:11:46;81.37;;;23.00;;
55465;SDS011;41329;41.594;23.810;2023-02-28T00:14:12;70.77;;;21.53;;
55465;SDS011;41329;41.594;23.810;2023-02-28T00:16:37;74.00;;;21.70;;
55465;SDS011;41329;41.594;23.810;2023-02-28T00:19:02;67.43;;;19.80;;
55465;SDS011;41329;41.594;23.810;2023-02-28T00:21:28;75.73;;;21.17;;
55465;SDS011;41329;41.594;23.810;2023-02-28T00:23:53;65.97;;;19.63;;
55465;SDS011;41329;41.594;23.810;2023-02-28T00:26:19;87.83;;;21.20;;
55465;SDS011;41329;41.594;23.810;2023-02-28T00:28:44;69.77;;;20.00;;
55465;SDS011;41329;41.594;23.810;2023-02-28T00:31:10;67.07;;;19.73;;
55465;SDS011;41329;41.594;23.810;2023-02-28T00:33:35;63.03;;;19.60;;
55465;SDS011;41329;41.594;23.810;2023-02-28T00:36:07;71.83;;;19.97;;
55465;SDS011;41329;41.594;23.810;2023-02-28T00:38:34;68.93;;;19.47;;
55465;SDS011;41329;41.594;23.810;2023-02-28T00:41:00;69.47;;;19.67;;
55465;SDS011;41329;41.594;23.810;2023-02-28T00:43:29;70.00;;;20.53;;
55465;SDS011;41329;41.594;23.810;2023-02-28T00:45:56;62.97;;;17.43;;
55465;SDS011;41329;41.594;23.810;2023-02-28T00:48:21;53.60;;;14.87;;
55465;SDS011;41329;41.594;23.810;2023-02-28T00:50:48;52.37;;;14.43;;
55465;SDS011;41329;41.594;23.810;2023-02-28T00:53:14;52.40;;;14.37;;
55465;SDS011;41329;41.594;23.810;2023-02-28T00:55:40;49.50;;;15.00;;
55465;SDS011;41329;41.594;23.810;2023-02-28T00:58:05;61.70;;;15.73;;
55465;SDS011;41329;41.594;23.810;2023-02-28T01:00:31;67.40;;;14.63;;
55465;SDS011;41329;41.594;23.810;2023-02-28T01:02:56;47.73;;;13.30;;
55465;SDS011;41329;41.594;23.810;2023-02-28T01:05:22;50.53;;;14.00;;
55465;SDS011;41329;41.594;23.810;2023-02-28T01:07:47;48.93;;;13.53;;
55465;SDS011;41329;41.594;23.810;2023-02-28T01:10:12;65.83;;;20.20;;
55465;SDS011;41329;41.594;23.810;2023-02-28T01:12:38;74.93;;;24.70;;
55465;SDS011;41329;41.594;23.810;2023-02-28T01:15:03;73.80;;;24.60;;
55465;SDS011;41329;41.594;23.810;2023-02-28T01:17:29;49.87;;;13.50;;
55465;SDS011;41329;41.594;23.810;2023-02-28T01:19:55;54.83;;;13.60;;
55465;SDS011;41329;41.594;23.810;2023-02-28T01:22:21;38.80;;;12.27;;
55465;SDS011;41329;41.594;23.810;2023-02-28T01:24:46;47.77;;;12.33;;
55465;SDS011;41329;41.594;23.810;2023-02-28T01:27:12;45.50;;;13.13;;
55465;SDS011;41329;41.594;23.810;2023-02-28T01:29:38;66.50;;;16.27;;
55465;SDS011;41329;41.594;23.810;2023-02-28T01:32:03;54.10;;;14.60;;
55465;SDS011;41329;41.594;23.810;2023-02-28T01:34:29;62.33;;;19.87;;
55465;SDS011;41329;41.594;23.810;2023-02-28T01:36:54;66.90;;;20.30;;
55465;SDS011;41329;41.594;23.810;2023-02-28T01:39:20;60.60;;;18.33;;
55465;SDS011;41329;41.594;23.810;2023-02-28T01:41:45;69.43;;;18.83;;
55465;SDS011;41329;41.594;23.810;2023-02-28T01:47:14;53.57;;;17.60;;
55465;SDS011;41329;41.594;23.810;2023-02-28T01:49:40;63.40;;;17.87;;
55465;SDS011;41329;41.594;23.810;2023-02-28T01:52:05;53.47;;;16.47;;
55465;SDS011;41329;41.594;23.810;2023-02-28T01:54:33;55.53;;;15.63;;
55465;SDS011;41329;41.594;23.810;2023-02-28T01:57:04;55.17;;;13.83;;
55465;SDS011;41329;41.594;23.810;2023-02-28T01:59:40;40.27;;;13.83;;
55465;SDS011;41329;41.594;23.810;2023-02-28T02:02:13;49.47;;;13.53;;
55465;SDS011;41329;41.594;23.810;2023-02-28T02:04:57;33.33;;;11.80;;
55465;SDS011;41329;41.594;23.810;2023-02-28T02:07:35;42.33;;;14.57;;
55465;SDS011;41329;41.594;23.810;2023-02-28T02:12:36;53.20;;;16.13;;
55465;SDS011;41329;41.594;23.810;2023-02-28T02:15:16;48.93;;;14.73;;
55465;SDS011;41329;41.594;23.810;2023-02-28T02:18:25;52.73;;;14.67;;
55465;SDS011;41329;41.594;23.810;2023-02-28T02:29:35;59.43;;;14.97;;
55465;SDS011;41329;41.594;23.810;2023-02-28T02:40:22;57.73;;;13.83;;
55465;SDS011;41329;41.594;23.810;2023-02-28T02:45:32;54.37;;;13.67;;
55465;SDS011;41329;41.594;23.810;2023-02-28T02:48:04;49.93;;;13.77;;
55465;SDS011;41329;41.594;23.810;2023-02-28T02:50:54;57.73;;;13.37;;
55465;SDS011;41329;41.594;23.810;2023-02-28T02:53:24;51.60;;;14.35;;
55465;SDS011;41329;41.594;23.810;2023-02-28T02:55:55;37.33;;;13.30;;
55465;SDS011;41329;41.594;23.810;2023-02-28T02:58:26;57.73;;;13.13;;
55465;SDS011;41329;41.594;23.810;2023-02-28T03:00:57;51.63;;;13.03;;
55465;SDS011;41329;41.594;23.810;2023-02-28T03:03:25;63.07;;;13.57;;
55465;SDS011;41329;41.594;23.810;2023-02-28T03:05:58;52.13;;;12.27;;
55465;SDS011;41329;41.594;23.810;2023-02-28T03:08:25;60.70;;;13.63;;
55465;SDS011;41329;41.594;23.810;2023-02-28T03:10:55;45.63;;;13.43;;
55465;SDS011;41329;41.594;23.810;2023-02-28T03:21:40;56.17;;;14.13;;
55465;SDS011;41329;41.594;23.810;2023-02-28T03:24:23;62.03;;;16.87;;
55465;SDS011;41329;41.594;23.810;2023-02-28T03:26:52;58.97;;;18.03;;
55465;SDS011;41329;41.594;23.810;2023-02-28T03:29:30;69.67;;;20.07;;
55465;SDS011;41329;41.594;23.810;2023-02-28T03:32:08;63.63;;;21.03;;
55465;SDS011;41329;41.594;23.810;2023-02-28T03:35:07;57.57;;;20.33;;
55465;SDS011;41329;41.594;23.810;2023-02-28T03:37:38;83.13;;;21.47;;
55465;SDS011;41329;41.594;23.810;2023-02-28T03:40:17;72.40;;;21.13;;
55465;SDS011;41329;41.594;23.810;2023-02-28T03:42:48;69.47;;;20.70;;
55465;SDS011;41329;41.594;23.810;2023-02-28T03:45:19;61.13;;;17.63;;
55465;SDS011;41329;41.594;23.810;2023-02-28T03:50:34;57.73;;;15.23;;
55465;SDS011;41329;41.594;23.810;2023-02-28T03:55:38;49.93;;;16.60;;
55465;SDS011;41329;41.594;23.810;2023-02-28T04:00:49;53.30;;;15.47;;
55465;SDS011;41329;41.594;23.810;2023-02-28T04:03:20;72.20;;;20.73;;
55465;SDS011;41329;41.594;23.810;2023-02-28T04:05:47;75.73;;;19.90;;
55465;SDS011;41329;41.594;23.810;2023-02-28T04:08:15;59.50;;;18.55;;
55465;SDS011;41329;41.594;23.810;2023-02-28T04:10:41;75.60;;;17.27;;
55465;SDS011;41329;41.594;23.810;2023-02-28T04:13:10;83.27;;;31.40;;
55465;SDS011;41329;41.594;23.810;2023-02-28T04:15:35;108.47;;;31.93;;
55465;SDS011;41329;41.594;23.810;2023-02-28T04:18:01;95.00;;;27.27;;
55465;SDS011;41329;41.594;23.810;2023-02-28T04:20:27;79.53;;;23.87;;
55465;SDS011;41329;41.594;23.810;2023-02-28T04:22:53;87.23;;;22.87;;
55465;SDS011;41329;41.594;23.810;2023-02-28T04:25:18;67.40;;;21.43;;
55465;SDS011;41329;41.594;23.810;2023-02-28T04:27:43;72.70;;;24.40;;
55465;SDS011;41329;41.594;23.810;2023-02-28T04:30:10;67.87;;;24.20;;
55465;SDS011;41329;41.594;23.810;2023-02-28T04:32:36;77.27;;;22.30;;
55465;SDS011;41329;41.594;23.810;2023-02-28T04:35:01;64.50;;;20.87;;
55465;SDS011;41329;41.594;23.810;2023-02-28T04:37:27;69.67;;;20.23;;
55465;SDS011;41329;41.594;23.810;2023-02-28T04:39:53;80.17;;;33.33;;
55465;SDS011;41329;41.594;23.810;2023-02-28T04:42:19;89.63;;;29.57;;
55465;SDS011;41329;41.594;23.810;2023-02-28T04:44:45;85.97;;;30.43;;
55465;SDS011;41329;41.594;23.810;2023-02-28T04:47:12;84.77;;;26.70;;
55465;SDS011;41329;41.594;23.810;2023-02-28T04:49:37;82.63;;;26.47;;
55465;SDS011;41329;41.594;23.810;2023-02-28T04:52:03;82.90;;;34.73;;
55465;SDS011;41329;41.594;23.810;2023-02-28T04:54:29;75.27;;;26.93;;
55465;SDS011;41329;41.594;23.810;2023-02-28T04:56:54;88.20;;;25.57;;
55465;SDS011;41329;41.594;23.810;2023-02-28T04:59:20;84.53;;;29.67;;
55465;SDS011;41329;41.594;23.810;2023-02-28T05:01:46;73.37;;;24.27;;
55465;SDS011;41329;41.594;23.810;2023-02-28T05:04:13;78.53;;;21.47;;
55465;SDS011;41329;41.594;23.810;2023-02-28T05:06:38;81.90;;;20.50;;
55465;SDS011;41329;41.594;23.810;2023-02-28T05:09:04;46.83;;;13.13;;
55465;SDS011;41329;41.594;23.810;2023-02-28T05:11:30;52.90;;;14.23;;
55465;SDS011;41329;41.594;23.810;2023-02-28T05:14:01;51.97;;;14.87;;
55465;SDS011;41329;41.594;23.810;2023-02-28T05:16:28;60.47;;;16.90;;
55465;SDS011;41329;41.594;23.810;2023-02-28T05:18:54;55.73;;;14.83;;
55465;SDS011;41329;41.594;23.810;2023-02-28T05:21:27;48.93;;;14.60;;
55465;SDS011;41329;41.594;23.810;2023-02-28T05:23:53;48.03;;;15.13;;
55465;SDS011;41329;41.594;23.810;2023-02-28T05:26:20;56.47;;;16.10;;
55465;SDS011;41329;41.594;23.810;2023-02-28T05:28:46;58.60;;;18.23;;
55465;SDS011;41329;41.594;23.810;2023-02-28T05:31:11;62.67;;;17.73;;
55465;SDS011;41329;41.594;23.810;2023-02-28T05:33:37;66.40;;;17.80;;
55465;SDS011;41329;41.594;23.810;2023-02-28T05:36:03;60.73;;;19.37;;
55465;SDS011;41329;41.594;23.810;2023-02-28T05:38:29;65.43;;;18.70;;
55465;SDS011;41329;41.594;23.810;2023-02-28T05:40:55;60.93;;;20.07;;
55465;SDS011;41329;41.594;23.810;2023-02-28T05:43:21;67.90;;;21.00;;
55465;SDS011;41329;41.594;23.810;2023-02-28T05:45:46;129.87;;;36.13;;
55465;SDS011;41329;41.594;23.810;2023-02-28T05:48:12;146.40;;;51.17;;
55465;SDS011;41329;41.594;23.810;2023-02-28T05:50:37;102.13;;;30.37;;
55465;SDS011;41329;41.594;23.810;2023-02-28T05:53:03;100.27;;;29.23;;
55465;SDS011;41329;41.594;23.810;2023-02-28T05:55:28;86.63;;;26.07;;
55465;SDS011;41329;41.594;23.810;2023-02-28T05:57:54;80.10;;;23.30;;
55465;SDS011;41329;41.594;23.810;2023-02-28T06:00:20;62.77;;;19.53;;
55465;SDS011;41329;41.594;23.810;2023-02-28T06:02:46;61.93;;;18.20;;
55465;SDS011;41329;41.594;23.810;2023-02-28T06:05:16;61.30;;;18.17;;
55465;SDS011;41329;41.594;23.810;2023-02-28T06:10:09;86.00;;;20.30;;
55465;SDS011;41329;41.594;23.810;2023-02-28T06:12:36;83.67;;;26.67;;
55465;SDS011;41329;41.594;23.810;2023-02-28T06:15:02;64.03;;;18.67;;
55465;SDS011;41329;41.594;23.810;2023-02-28T06:17:28;66.43;;;18.23;;
55465;SDS011;41329;41.594;23.810;2023-02-28T06:19:53;66.07;;;18.00;;
55465;SDS011;41329;41.594;23.810;2023-02-28T06:22:18;60.50;;;17.90;;
55465;SDS011;41329;41.594;23.810;2023-02-28T06:24:44;73.37;;;18.43;;
55465;SDS011;41329;41.594;23.810;2023-02-28T06:27:09;59.83;;;18.90;;
55465;SDS011;41329;41.594;23.810;2023-02-28T06:29:35;72.77;;;21.00;;
55465;SDS011;41329;41.594;23.810;2023-02-28T06:32:01;80.40;;;28.50;;
55465;SDS011;41329;41.594;23.810;2023-02-28T06:34:28;79.83;;;31.90;;
55465;SDS011;41329;41.594;23.810;2023-02-28T06:36:53;87.60;;;36.63;;
55465;SDS011;41329;41.594;23.810;2023-02-28T06:39:19;97.40;;;38.23;;
55465;SDS011;41329;41.594;23.810;2023-02-28T06:41:44;92.47;;;34.03;;
55465;SDS011;41329;41.594;23.810;2023-02-28T06:44:14;71.50;;;26.53;;
55465;SDS011;41329;41.594;23.810;2023-02-28T06:46:41;76.70;;;28.30;;
55465;SDS011;41329;41.594;23.810;2023-02-28T06:49:08;60.67;;;20.03;;
55465;SDS011;41329;41.594;23.810;2023-02-28T06:51:35;53.70;;;18.70;;
55465;SDS011;41329;41.594;23.810;2023-02-28T06:54:03;63.00;;;19.70;;
55465;SDS011;41329;41.594;23.810;2023-02-28T06:56:28;59.40;;;20.37;;
55465;SDS011;41329;41.594;23.810;2023-02-28T06:58:54;67.97;;;24.00;;
55465;SDS011;41329;41.594;23.810;2023-02-28T07:01:19;57.60;;;22.37;;
55465;SDS011;41329;41.594;23.810;2023-02-28T07:03:47;80.43;;;23.03;;
55465;SDS011;41329;41.594;23.810;2023-02-28T07:06:17;68.20;;;24.07;;
55465;SDS011;41329;41.594;23.810;2023-02-28T07:08:43;72.87;;;24.30;;
55465;SDS011;41329;41.594;23.810;2023-02-28T07:11:09;81.50;;;28.07;;
55465;SDS011;41329;41.594;23.810;2023-02-28T07:13:35;74.40;;;26.93;;
55465;SDS011;41329;41.594;23.810;2023-02-28T07:16:02;95.70;;;25.00;;
55465;SDS011;41329;41.594;23.810;2023-02-28T07:18:30;71.07;;;25.00;;
55465;SDS011;41329;41.594;23.810;2023-02-28T07:20:55;74.00;;;26.93;;
55465;SDS011;41329;41.594;23.810;2023-02-28T07:23:21;74.43;;;25.93;;
55465;SDS011;41329;41.594;23.810;2023-02-28T07:25:47;81.73;;;25.40;;
55465;SDS011;41329;41.594;23.810;2023-02-28T07:28:14;69.50;;;25.20;;
55465;SDS011;41329;41.594;23.810;2023-02-28T07:30:40;85.17;;;26.07;;
55465;SDS011;41329;41.594;23.810;2023-02-28T07:33:06;79.37;;;25.17;;
55465;SDS011;41329;41.594;23.810;2023-02-28T07:35:32;75.80;;;25.57;;
55465;SDS011;41329;41.594;23.810;2023-02-28T07:37:58;80.43;;;26.47;;
55465;SDS011;41329;41.594;23.810;2023-02-28T07:40:24;80.03;;;25.13;;
55465;SDS011;41329;41.594;23.810;2023-02-28T07:42:50;94.77;;;26.23;;
55465;SDS011;41329;41.594;23.810;2023-02-28T07:45:16;98.30;;;33.90;;
55465;SDS011;41329;41.594;23.810;2023-02-28T07:47:42;104.57;;;38.77;;
55465;SDS011;41329;41.594;23.810;2023-02-28T07:50:09;76.33;;;26.13;;
55465;SDS011;41329;41.594;23.810;2023-02-28T07:52:37;88.40;;;28.33;;
55465;SDS011;41329;41.594;23.810;2023-02-28T07:55:09;66.60;;;23.77;;
55465;SDS011;41329;41.594;23.810;2023-02-28T07:57:35;85.47;;;25.60;;
55465;SDS011;41329;41.594;23.810;2023-02-28T08:00:02;76.67;;;27.77;;
55465;SDS011;41329;41.594;23.810;2023-02-28T08:02:34;80.13;;;26.03;;
55465;SDS011;41329;41.594;23.810;2023-02-28T08:05:00;85.23;;;26.77;;
55465;SDS011;41329;41.594;23.810;2023-02-28T08:07:26;60.67;;;26.07;;
55465;SDS011;41329;41.594;23.810;2023-02-28T08:09:51;75.93;;;25.37;;
55465;SDS011;41329;41.594;23.810;2023-02-28T08:12:16;76.60;;;25.43;;
55465;SDS011;41329;41.594;23.810;2023-02-28T08:14:42;68.27;;;23.87;;
55465;SDS011;41329;41.594;23.810;2023-02-28T08:17:08;75.33;;;24.87;;
55465;SDS011;41329;41.594;23.810;2023-02-28T08:19:35;61.00;;;23.33;;
55465;SDS011;41329;41.594;23.810;2023-02-28T08:22:00;66.33;;;23.53;;
55465;SDS011;41329;41.594;23.810;2023-02-28T08:24:26;66.90;;;22.30;;
55465;SDS011;41329;41.594;23.810;2023-02-28T08:26:52;56.83;;;22.87;;
55465;SDS011;41329;41.594;23.810;2023-02-28T08:29:17;65.50;;;23.80;;
55465;SDS011;41329;41.594;23.810;2023-02-28T08:31:43;56.47;;;18.00;;
55465;SDS011;41329;41.594;23.810;2023-02-28T08:34:09;51.53;;;15.50;;
55465;SDS011;41329;41.594;23.810;2023-02-28T08:36:36;54.50;;;13.73;;
55465;SDS011;41329;41.594;23.810;2023-02-28T08:39:02;53.13;;;12.77;;
55465;SDS011;41329;41.594;23.810;2023-02-28T08:41:28;47.13;;;12.73;;
55465;SDS011;41329;41.594;23.810;2023-02-28T08:43:53;42.50;;;11.00;;
55465;SDS011;41329;41.594;23.810;2023-02-28T08:46:19;55.13;;;11.93;;
55465;SDS011;41329;41.594;23.810;2023-02-28T08:48:45;40.13;;;11.47;;
55465;SDS011;41329;41.594;23.810;2023-02-28T08:51:12;38.33;;;12.40;;
55465;SDS011;41329;41.594;23.810;2023-02-28T08:53:39;55.43;;;16.50;;
55465;SDS011;41329;41.594;23.810;2023-02-28T08:56:06;43.23;;;13.63;;
55465;SDS011;41329;41.594;23.810;2023-02-28T08:58:34;49.67;;;11.47;;
55465;SDS011;41329;41.594;23.810;2023-02-28T09:01:00;32.37;;;11.67;;
55465;SDS011;41329;41.594;23.810;2023-02-28T09:03:31;42.10;;;10.20;;
55465;SDS011;41329;41.594;23.810;2023-02-28T09:05:58;44.90;;;10.57;;
55465;SDS011;41329;41.594;23.810;2023-02-28T09:08:25;32.47;;;9.20;;
55465;SDS011;41329;41.594;23.810;2023-02-28T09:10:53;48.50;;;11.20;;
55465;SDS011;41329;41.594;23.810;2023-02-28T09:13:19;56.03;;;11.90;;
55465;SDS011;41329;41.594;23.810;2023-02-28T09:15:45;32.50;;;12.35;;
55465;SDS011;41329;41.594;23.810;2023-02-28T09:18:11;50.22;;;10.63;;
55465;SDS011;41329;41.594;23.810;2023-02-28T09:20:38;46.33;;;9.93;;
55465;SDS011;41329;41.594;23.810;2023-02-28T09:23:05;48.70;;;10.80;;
55465;SDS011;41329;41.594;23.810;2023-02-28T09:25:31;55.03;;;10.40;;
55465;SDS011;41329;41.594;23.810;2023-02-28T09:27:56;37.88;;;10.10;;
55465;SDS011;41329;41.594;23.810;2023-02-28T09:30:22;45.63;;;10.30;;
55465;SDS011;41329;41.594;23.810;2023-02-28T09:32:47;50.95;;;10.43;;
55465;SDS011;41329;41.594;23.810;2023-02-28T09:35:25;48.35;;;10.48;;
55465;SDS011;41329;41.594;23.810;2023-02-28T09:37:51;41.47;;;8.43;;
55465;SDS011;41329;41.594;23.810;2023-02-28T09:40:18;46.13;;;9.10;;
55465;SDS011;41329;41.594;23.810;2023-02-28T09:42:47;57.22;;;14.82;;
55465;SDS011;41329;41.594;23.810;2023-02-28T09:48:12;44.78;;;8.65;;
55465;SDS011;41329;41.594;23.810;2023-02-28T09:50:43;53.08;;;9.88;;
55465;SDS011;41329;41.594;23.810;2023-02-28T09:55:51;49.55;;;8.80;;
55465;SDS011;41329;41.594;23.810;2023-02-28T10:01:15;48.77;;;9.40;;
55465;SDS011;41329;41.594;23.810;2023-02-28T10:03:47;45.47;;;9.00;;
55465;SDS011;41329;41.594;23.810;2023-02-28T10:06:19;52.35;;;9.38;;
55465;SDS011;41329;41.594;23.810;2023-02-28T10:11:16;55.58;;;9.00;;
55465;SDS011;41329;41.594;23.810;2023-02-28T10:16:37;59.08;;;9.93;;
55465;SDS011;41329;41.594;23.810;2023-02-28T10:19:13;56.35;;;10.88;;
55465;SDS011;41329;41.594;23.810;2023-02-28T10:21:59;50.22;;;10.45;;
55465;SDS011;41329;41.594;23.810;2023-02-28T10:27:05;50.38;;;9.85;;
55465;SDS011;41329;41.594;23.810;2023-02-28T10:29:40;48.33;;;11.63;;
55465;SDS011;41329;41.594;23.810;2023-02-28T10:32:09;55.50;;;12.38;;
55465;SDS011;41329;41.594;23.810;2023-02-28T10:37:05;54.05;;;11.25;;
55465;SDS011;41329;41.594;23.810;2023-02-28T10:39:34;50.92;;;12.65;;
55465;SDS011;41329;41.594;23.810;2023-02-28T10:42:01;53.38;;;11.52;;
55465;SDS011;41329;41.594;23.810;2023-02-28T10:44:26;59.67;;;11.40;;
55465;SDS011;41329;41.594;23.810;2023-02-28T10:46:52;40.80;;;10.15;;
55465;SDS011;41329;41.594;23.810;2023-02-28T10:49:21;52.13;;;11.68;;
55465;SDS011;41329;41.594;23.810;2023-02-28T10:51:52;37.97;;;9.90;;
55465;SDS011;41329;41.594;23.810;2023-02-28T10:54:29;53.10;;;10.90;;
55465;SDS011;41329;41.594;23.810;2023-02-28T10:57:07;48.92;;;10.35;;
55465;SDS011;41329;41.594;23.810;2023-02-28T10:59:52;50.63;;;11.38;;
55465;SDS011;41329;41.594;23.810;2023-02-28T11:02:31;31.23;;;8.95;;
55465;SDS011;41329;41.594;23.810;2023-02-28T11:04:57;46.47;;;11.02;;
55465;SDS011;41329;41.594;23.810;2023-02-28T11:07:23;56.15;;;9.43;;
55465;SDS011;41329;41.594;23.810;2023-02-28T11:09:51;44.88;;;10.32;;
55465;SDS011;41329;41.594;23.810;2023-02-28T11:12:36;43.65;;;10.32;;
55465;SDS011;41329;41.594;23.810;2023-02-28T11:15:05;46.83;;;11.70;;
55465;SDS011;41329;41.594;23.810;2023-02-28T11:17:43;57.65;;;11.18;;
55465;SDS011;41329;41.594;23.810;2023-02-28T11:20:10;41.97;;;11.50;;
55465;SDS011;41329;41.594;23.810;2023-02-28T11:22:46;46.40;;;13.43;;
55465;SDS011;41329;41.594;23.810;2023-02-28T11:25:25;59.17;;;12.82;;
55465;SDS011;41329;41.594;23.810;2023-02-28T11:28:04;48.30;;;12.20;;
55465;SDS011;41329;41.594;23.810;2023-02-28T11:36:03;39.90;;;10.75;;
55465;SDS011;41329;41.594;23.810;2023-02-28T11:38:35;49.95;;;12.35;;
55465;SDS011;41329;41.594;23.810;2023-02-28T11:41:05;34.70;;;10.27;;
55465;SDS011;41329;41.594;23.810;2023-02-28T11:46:58;43.20;;;11.27;;
55465;SDS011;41329;41.594;23.810;2023-02-28T11:49:50;58.20;;;10.93;;
55465;SDS011;41329;41.594;23.810;2023-02-28T11:52:48;44.78;;;12.05;;
55465;SDS011;41329;41.594;23.810;2023-02-28T12:03:26;22.33;;;8.23;;
55465;SDS011;41329;41.594;23.810;2023-02-28T12:08:54;30.40;;;9.10;;
55465;SDS011;41329;41.594;23.810;2023-02-28T12:11:51;30.07;;;10.40;;
55465;SDS011;41329;41.594;23.810;2023-02-28T12:28:35;11.00;;;7.33;;
55465;SDS011;41329;41.594;23.810;2023-02-28T12:31:09;7.27;;;5.23;;
55465;SDS011;41329;41.594;23.810;2023-02-28T12:33:46;12.23;;;5.37;;
55465;SDS011;41329;41.594;23.810;2023-02-28T12:36:17;6.80;;;5.00;;
55465;SDS011;41329;41.594;23.810;2023-02-28T12:47:17;11.70;;;5.35;;
55465;SDS011;41329;41.594;23.810;2023-02-28T12:49:49;4.93;;;4.20;;
55465;SDS011;41329;41.594;23.810;2023-02-28T12:52:21;7.93;;;3.90;;
55465;SDS011;41329;41.594;23.810;2023-02-28T13:01:06;5.27;;;2.97;;
55465;SDS011;41329;41.594;23.810;2023-02-28T13:11:58;4.03;;;2.00;;
55465;SDS011;41329;41.594;23.810;2023-02-28T13:14:26;5.07;;;2.20;;
55465;SDS011;41329;41.594;23.810;2023-02-28T13:17:09;4.73;;;2.20;;
55465;SDS011;41329;41.594;23.810;2023-02-28T13:19:44;4.30;;;2.83;;
55465;SDS011;41329;41.594;23.810;2023-02-28T13:24:53;6.40;;;2.70;;
55465;SDS011;41329;41.594;23.810;2023-02-28T13:27:38;6.17;;;3.50;;
55465;SDS011;41329;41.594;23.810;2023-02-28T13:33:20;6.03;;;3.13;;
55465;SDS011;41329;41.594;23.810;2023-02-28T13:35:50;11.33;;;3.53;;
55465;SDS011;41329;41.594;23.810;2023-02-28T13:38:48;4.37;;;3.10;;
55465;SDS011;41329;41.594;23.810;2023-02-28T13:46:32;6.73;;;4.00;;
55465;SDS011;41329;41.594;23.810;2023-02-28T13:51:48;4.23;;;2.63;;
55465;SDS011;41329;41.594;23.810;2023-02-28T14:00:23;7.53;;;5.67;;
55465;SDS011;41329;41.594;23.810;2023-02-28T14:05:38;62.37;;;29.93;;
55465;SDS011;41329;41.594;23.810;2023-02-28T14:08:05;78.63;;;46.87;;
55465;SDS011;41329;41.594;23.810;2023-02-28T14:10:42;85.07;;;39.27;;
55465;SDS011;41329;41.594;23.810;2023-02-28T14:16:09;51.50;;;25.30;;
55465;SDS011;41329;41.594;23.810;2023-02-28T14:18:40;31.40;;;22.07;;
55465;SDS011;41329;41.594;23.810;2023-02-28T14:21:20;25.77;;;18.33;;
55465;SDS011;41329;41.594;23.810;2023-02-28T14:33:00;25.43;;;16.40;;
55465;SDS011;41329;41.594;23.810;2023-02-28T14:39:12;22.20;;;14.37;;
55465;SDS011;41329;41.594;23.810;2023-02-28T14:41:29;17.60;;;15.53;;
55465;SDS011;41329;41.594;23.810;2023-02-28T14:43:57;18.00;;;15.03;;
55465;SDS011;41329;41.594;23.810;2023-02-28T14:46:26;17.67;;;13.53;;
55465;SDS011;41329;41.594;23.810;2023-02-28T14:49:01;24.93;;;18.73;;
55465;SDS011;41329;41.594;23.810;2023-02-28T14:51:29;45.77;;;25.80;;
55465;SDS011;41329;41.594;23.810;2023-02-28T14:53:59;29.70;;;23.47;;
55465;SDS011;41329;41.594;23.810;2023-02-28T14:56:31;25.53;;;19.53;;
55465;SDS011;41329;41.594;23.810;2023-02-28T14:59:00;21.13;;;18.27;;
55465;SDS011;41329;41.594;23.810;2023-02-28T15:01:26;15.10;;;13.53;;
55465;SDS011;41329;41.594;23.810;2023-02-28T15:03:59;12.03;;;10.90;;
55465;SDS011;41329;41.594;23.810;2023-02-28T15:06:26;27.40;;;19.10;;
55465;SDS011;41329;41.594;23.810;2023-02-28T15:11:47;26.27;;;18.17;;
55465;SDS011;41329;41.594;23.810;2023-02-28T15:14:15;25.47;;;18.97;;
55465;SDS011;41329;41.594;23.810;2023-02-28T15:16:44;19.80;;;17.67;;
55465;SDS011;41329;41.594;23.810;2023-02-28T15:21:47;17.67;;;16.17;;
55465;SDS011;41329;41.594;23.810;2023-02-28T15:26:56;32.40;;;24.63;;
55465;SDS011;41329;41.594;23.810;2023-02-28T15:29:24;47.83;;;35.20;;
55465;SDS011;41329;41.594;23.810;2023-02-28T15:32:03;46.77;;;29.37;;
55465;SDS011;41329;41.594;23.810;2023-02-28T15:34:37;29.73;;;22.97;;
55465;SDS011;41329;41.594;23.810;2023-02-28T15:40:10;28.87;;;20.03;;
55465;SDS011;41329;41.594;23.810;2023-02-28T15:42:40;21.90;;;19.73;;
55465;SDS011;41329;41.594;23.810;2023-02-28T15:45:05;25.20;;;17.83;;
55465;SDS011;41329;41.594;23.810;2023-02-28T15:47:51;25.53;;;18.60;;
55465;SDS011;41329;41.594;23.810;2023-02-28T15:50:16;33.60;;;24.70;;
55465;SDS011;41329;41.594;23.810;2023-02-28T15:52:43;36.30;;;27.20;;
55465;SDS011;41329;41.594;23.810;2023-02-28T15:55:11;23.17;;;20.77;;
55465;SDS011;41329;41.594;23.810;2023-02-28T15:57:43;17.77;;;16.10;;
55465;SDS011;41329;41.594;23.810;2023-02-28T16:00:13;10.57;;;9.87;;
55465;SDS011;41329;41.594;23.810;2023-02-28T16:02:41;8.65;;;8.02;;
55465;SDS011;41329;41.594;23.810;2023-02-28T16:07:32;10.10;;;9.27;;
55465;SDS011;41329;41.594;23.810;2023-02-28T16:09:59;8.90;;;8.30;;
55465;SDS011;41329;41.594;23.810;2023-02-28T16:12:29;13.37;;;12.37;;
55465;SDS011;41329;41.594;23.810;2023-02-28T16:14:57;25.80;;;23.27;;
55465;SDS011;41329;41.594;23.810;2023-02-28T16:17:28;23.60;;;20.47;;
55465;SDS011;41329;41.594;23.810;2023-02-28T16:19:55;39.83;;;30.80;;
55465;SDS011;41329;41.594;23.810;2023-02-28T16:22:21;27.90;;;24.90;;
55465;SDS011;41329;41.594;23.810;2023-02-28T16:24:47;30.63;;;23.40;;
55465;SDS011;41329;41.594;23.810;2023-02-28T16:29:56;20.97;;;18.97;;
55465;SDS011;41329;41.594;23.810;2023-02-28T16:32:22;15.67;;;14.27;;
55465;SDS011;41329;41.594;23.810;2023-02-28T16:34:47;11.90;;;10.97;;
55465;SDS011;41329;41.594;23.810;2023-02-28T16:37:13;6.63;;;6.03;;
55465;SDS011;41329;41.594;23.810;2023-02-28T16:39:41;6.77;;;6.27;;
55465;SDS011;41329;41.594;23.810;2023-02-28T16:42:28;6.17;;;5.77;;
55465;SDS011;41329;41.594;23.810;2023-02-28T16:44:54;6.87;;;6.27;;
55465;SDS011;41329;41.594;23.810;2023-02-28T16:47:20;7.23;;;6.83;;
55465;SDS011;41329;41.594;23.810;2023-02-28T16:49:46;8.30;;;7.80;;
55465;SDS011;41329;41.594;23.810;2023-02-28T16:52:13;10.30;;;9.60;;
55465;SDS011;41329;41.594;23.810;2023-02-28T16:54:39;26.80;;;20.93;;
55465;SDS011;41329;41.594;23.810;2023-02-28T16:57:06;38.73;;;27.67;;
55465;SDS011;41329;41.594;23.810;2023-02-28T16:59:42;36.73;;;26.13;;
55465;SDS011;41329;41.594;23.810;2023-02-28T17:02:10;31.93;;;24.07;;
55465;SDS011;41329;41.594;23.810;2023-02-28T17:04:37;69.43;;;38.65;;
55465;SDS011;41329;41.594;23.810;2023-02-28T17:07:03;27.47;;;22.47;;
55465;SDS011;41329;41.594;23.810;2023-02-28T17:09:28;15.10;;;13.90;;
55465;SDS011;41329;41.594;23.810;2023-02-28T17:11:54;21.77;;;17.20;;
55465;SDS011;41329;41.594;23.810;2023-02-28T17:14:19;18.87;;;17.00;;
55465;SDS011;41329;41.594;23.810;2023-02-28T17:16:46;73.47;;;32.03;;